Time;durP1;ratioP1;P1;durP2;ratioP2;P2;SDS_P1;SDS_P2;PMS_P1;PMS_P2;Temp;Humidity;BMP_temperature;BMP_pressure;BME280_temperature;BME280_humidity;BME280_pressure;Samples;Min_cycle;Max_cycle;Signal;HPM_P1;HPM_P2
2022/10/02 00:00:00;;;;;;;5.10;2.40;;;;;;;27.02;28.04;97591.09;5074229;28;20028;-79
2022/10/02 00:02:36;;;;;;;0.55;0.50;;;;;;;26.76;28.21;97598.19;5067659;28;20048;-79
2022/10/02 00:05:18;;;;;;;0.95;0.70;;;;;;;26.56;28.49;97598.53;5065149;28;20041;-79
2022/10/02 00:07:48;;;;;;;0.50;0.50;;;;;;;26.00;29.51;97595.06;5055845;28;20025;-79
2022/10/02 00:10:23;;;;;;;0.98;0.70;;;;;;;26.20;29.01;97595.56;5073086;28;20051;-80
2022/10/02 00:12:55;;;;;;;0.77;0.60;;;;;;;25.62;30.00;97602.91;5072765;28;20035;-79
2022/10/02 00:15:27;;;;;;;0.73;0.60;;;;;;;25.98;29.32;97598.34;5071535;28;20550;-80
2022/10/02 00:18:03;;;;;;;0.43;0.43;;;;;;;26.55;28.51;97608.25;5068654;28;20509;-79
2022/10/02 00:20:41;;;;;;;0.70;0.70;;;;;;;26.24;28.94;97603.84;5064206;28;20555;-79
2022/10/02 00:23:18;;;;;;;1.08;0.50;;;;;;;26.29;29.01;97606.88;5068673;28;20361;-79
2022/10/02 00:25:58;;;;;;;1.00;0.65;;;;;;;26.49;28.52;97617.78;5073032;28;20040;-79
2022/10/02 00:28:30;;;;;;;0.53;0.53;;;;;;;25.98;29.79;97606.78;5069926;28;20147;-80
2022/10/02 00:31:26;;;;;;;0.57;0.52;;;;;;;25.86;29.84;97609.66;5069021;28;20040;-80
2022/10/02 00:34:10;;;;;;;0.52;0.52;;;;;;;25.83;29.77;97607.78;5046183;28;20480;-80
2022/10/02 00:36:56;;;;;;;1.30;0.60;;;;;;;26.02;29.57;97609.47;5057521;28;20020;-80
2022/10/02 00:39:56;;;;;;;1.33;0.50;;;;;;;26.63;28.63;97620.00;5065083;28;20025;-80
2022/10/02 00:42:41;;;;;;;0.55;0.52;;;;;;;26.86;28.23;97611.06;5070721;28;20024;-80
2022/10/02 00:45:44;;;;;;;0.50;0.50;;;;;;;26.53;28.75;97627.66;5065002;28;20037;-80
2022/10/02 00:48:25;;;;;;;0.43;0.40;;;;;;;27.06;28.13;97628.34;5059834;28;20037;-80
2022/10/02 00:51:21;;;;;;;0.40;0.40;;;;;;;26.82;28.42;97620.91;5043885;28;20040;-80
2022/10/02 00:54:11;;;;;;;1.75;0.60;;;;;;;26.37;28.84;97625.03;5069450;28;20143;-80
2022/10/02 00:56:58;;;;;;;0.50;0.50;;;;;;;26.90;28.26;97628.63;5064956;28;20119;-80
2022/10/02 00:59:43;;;;;;;0.68;0.63;;;;;;;26.52;28.61;97619.66;5069756;28;20135;-80
2022/10/02 01:02:35;;;;;;;0.40;0.38;;;;;;;27.16;28.00;97629.16;5067932;28;20066;-81
2022/10/02 01:05:09;;;;;;;0.32;0.32;;;;;;;27.21;27.63;97629.31;5070544;28;20079;-80
2022/10/02 01:07:39;;;;;;;0.35;0.35;;;;;;;27.86;26.72;97643.06;5043464;28;20036;-80
2022/10/02 01:10:07;;;;;;;0.60;0.60;;;;;;;27.35;27.53;97633.59;5063728;28;20029;-80
2022/10/02 01:12:33;;;;;;;0.85;0.40;;;;;;;27.62;26.91;97644.94;5070688;28;20494;-80
2022/10/02 01:14:59;;;;;;;0.22;0.22;;;;;;;27.96;26.76;97638.97;5071465;28;20078;-81
2022/10/02 01:17:27;;;;;;;0.32;0.32;;;;;;;27.84;27.05;97636.34;5061269;28;20490;-79
2022/10/02 01:19:54;;;;;;;1.55;0.38;;;;;;;28.10;26.30;97628.34;5061320;28;20029;-79
2022/10/02 01:22:39;;;;;;;0.30;0.30;;;;;;;28.38;26.32;97632.69;5062961;28;20541;-79
2022/10/02 01:25:07;;;;;;;0.60;0.40;;;;;;;27.38;27.20;97647.56;5069638;28;20045;-79
2022/10/02 01:27:35;;;;;;;0.40;0.40;;;;;;;27.10;28.02;97642.28;5067624;28;20081;-79
2022/10/02 01:30:07;;;;;;;2.90;0.40;;;;;;;26.77;28.50;97644.06;5050882;28;20055;-80
2022/10/02 01:32:38;;;;;;;1.38;0.30;;;;;;;26.82;28.07;97658.31;5067282;28;20587;-80
2022/10/02 01:35:05;;;;;;;0.30;0.30;;;;;;;26.15;29.27;97663.69;5069309;28;20089;-79
2022/10/02 01:37:35;;;;;;;2.03;0.40;;;;;;;25.99;29.33;97663.84;5067508;28;20032;-79
2022/10/02 01:40:23;;;;;;;0.35;0.35;;;;;;;26.74;27.97;97657.00;5065902;28;20086;-80
2022/10/02 01:42:50;;;;;;;0.73;0.40;;;;;;;26.71;27.98;97672.00;5064393;28;20043;-79
2022/10/02 01:45:16;;;;;;;0.80;0.30;;;;;;;26.94;28.24;97671.50;5070587;28;20028;-80
2022/10/02 01:48:09;;;;;;;0.30;0.30;;;;;;;26.73;28.62;97675.94;5070209;28;20037;-79
2022/10/02 01:50:58;;;;;;;0.85;0.40;;;;;;;26.66;28.75;97683.84;5064711;28;20050;-79
2022/10/02 01:53:47;;;;;;;0.70;0.45;;;;;;;26.79;28.77;97686.63;5071381;28;20020;-79
2022/10/02 01:56:38;;;;;;;1.10;1.00;;;;;;;26.30;29.56;97692.09;5068086;28;20040;-80
2022/10/02 01:59:30;;;;;;;0.80;0.50;;;;;;;26.48;29.58;97698.63;5070204;28;20033;-79
2022/10/02 02:02:04;;;;;;;0.45;0.40;;;;;;;26.91;29.05;97692.16;5067809;28;20044;-80
2022/10/02 02:04:55;;;;;;;1.88;0.43;;;;;;;26.88;29.04;97704.38;5068739;28;20048;-79
2022/10/02 02:07:46;;;;;;;0.50;0.43;;;;;;;26.75;29.03;97700.84;5065950;28;20494;-79
2022/10/02 02:10:33;;;;;;;0.98;0.30;;;;;;;27.33;28.08;97698.09;5069640;28;20491;-79
2022/10/02 02:13:18;;;;;;;2.60;0.50;;;;;;;26.73;29.46;97703.31;5065985;28;20051;-79
2022/10/02 02:15:54;;;;;;;0.88;0.60;;;;;;;27.18;28.58;97705.59;5068233;28;20497;-79
2022/10/02 02:18:46;;;;;;;0.35;0.35;;;;;;;27.32;28.51;97707.81;5068256;28;20040;-79
2022/10/02 02:21:21;;;;;;;0.90;0.55;;;;;;;26.60;29.44;97706.22;5069135;28;20037;-79
2022/10/02 02:23:48;;;;;;;0.60;0.60;;;;;;;27.35;28.29;97715.34;5064544;28;20107;-79
2022/10/02 02:26:18;;;;;;;1.23;0.60;;;;;;;27.16;28.52;97708.88;5063945;28;20359;-79
2022/10/02 02:28:51;;;;;;;0.77;0.70;;;;;;;27.14;28.58;97711.34;5060530;28;20032;-79
2022/10/02 02:31:21;;;;;;;0.50;0.50;;;;;;;27.50;28.02;97712.75;5061654;28;20032;-79
2022/10/02 02:34:00;;;;;;;0.50;0.50;;;;;;;27.04;28.71;97711.78;5067677;28;20033;-79
2022/10/02 02:36:34;;;;;;;1.35;0.60;;;;;;;26.39;30.01;97711.84;5067534;28;20040;-79
2022/10/02 02:39:05;;;;;;;1.52;0.52;;;;;;;26.57;29.58;97717.59;5065744;28;20111;-79
2022/10/02 02:41:38;;;;;;;0.60;0.55;;;;;;;27.01;29.04;97721.94;5047980;28;20123;-79
2022/10/02 02:44:19;;;;;;;0.40;0.40;;;;;;;27.79;27.81;97722.38;5070553;28;20482;-79
2022/10/02 02:47:15;;;;;;;0.40;0.40;;;;;;;27.54;27.94;97719.81;5048549;28;20540;-78
2022/10/02 02:49:54;;;;;;;0.60;0.50;;;;;;;27.38;28.05;97720.06;5060946;28;20048;-79
2022/10/02 02:52:41;;;;;;;1.17;0.70;;;;;;;26.14;30.04;97729.63;5073157;28;20498;-79
2022/10/02 02:55:13;;;;;;;1.10;0.57;;;;;;;26.79;28.93;97742.97;5069965;28;20482;-79
2022/10/02 02:57:48;;;;;;;0.55;0.50;;;;;;;26.53;29.62;97740.28;5067624;28;20029;-78
2022/10/02 03:00:16;;;;;;;0.50;0.50;;;;;;;26.98;28.67;97734.13;5075477;28;20038;-79
2022/10/02 03:02:42;;;;;;;0.50;0.50;;;;;;;26.73;29.24;97740.72;5072782;28;20501;-79
2022/10/02 03:05:16;;;;;;;0.88;0.55;;;;;;;25.73;30.72;97729.84;5081123;28;20024;-78
2022/10/02 03:07:49;;;;;;;0.68;0.68;;;;;;;25.33;31.84;97744.41;5067696;28;20102;-79
2022/10/02 03:10:28;;;;;;;2.25;1.25;;;;;;;25.85;30.97;97738.28;5065041;28;20036;-78
2022/10/02 03:13:11;;;;;;;0.60;0.60;;;;;;;25.63;31.42;97745.84;5048042;28;20056;-79
2022/10/02 03:16:06;;;;;;;1.13;0.60;;;;;;;26.12;30.75;97743.38;5072787;28;20043;-79
2022/10/02 03:18:41;;;;;;;0.70;0.60;;;;;;;26.16;30.42;97751.72;5070582;28;20044;-79
2022/10/02 03:21:38;;;;;;;0.75;0.60;;;;;;;26.61;29.78;97741.56;5069869;28;20036;-79
2022/10/02 03:24:45;;;;;;;0.68;0.68;;;;;;;26.06;30.18;97748.00;5053576;28;20056;-79
2022/10/02 03:27:23;;;;;;;0.82;0.60;;;;;;;26.51;29.30;97745.56;5068284;28;20605;-79
2022/10/02 03:30:00;;;;;;;2.03;0.80;;;;;;;25.78;30.54;97748.97;5055007;28;20132;-79
2022/10/02 03:32:28;;;;;;;0.93;0.60;;;;;;;26.33;29.81;97751.06;5050035;28;20469;-79
2022/10/02 03:34:56;;;;;;;1.38;0.75;;;;;;;26.17;29.81;97750.44;5056732;28;20033;-79
2022/10/02 03:37:23;;;;;;;0.68;0.68;;;;;;;26.29;29.71;97761.66;5071712;28;20111;-79
2022/10/02 03:39:51;;;;;;;1.17;0.60;;;;;;;26.60;29.16;97754.09;5062224;28;20029;-79
2022/10/02 03:42:22;;;;;;;0.70;0.50;;;;;;;26.40;29.59;97764.88;5072719;28;20089;-79
2022/10/02 03:44:48;;;;;;;1.42;0.70;;;;;;;26.62;29.25;97768.50;5070347;28;20462;-79
2022/10/02 03:47:15;;;;;;;2.08;0.68;;;;;;;26.47;29.38;97767.44;5072421;28;20478;-79
2022/10/02 03:49:41;;;;;;;2.45;0.80;;;;;;;25.98;29.66;97766.34;5073267;28;20090;-79
2022/10/02 03:52:27;;;;;;;0.80;0.60;;;;;;;26.27;29.73;97774.63;5073004;28;20048;-78
2022/10/02 03:55:00;;;;;;;0.60;0.60;;;;;;;26.54;29.16;97774.81;5067041;28;20056;-78
2022/10/02 03:57:27;;;;;;;1.30;0.80;;;;;;;26.12;30.09;97782.78;5071866;28;20600;-78
2022/10/02 04:00:04;;;;;;;0.73;0.70;;;;;;;26.67;29.08;97784.81;5054866;28;20036;-80
2022/10/02 04:02:51;;;;;;;0.90;0.60;;;;;;;26.83;28.99;97783.84;5061903;28;20032;-79
2022/10/02 04:05:22;;;;;;;0.68;0.68;;;;;;;26.77;29.19;97793.34;5066973;28;20052;-79
2022/10/02 04:07:56;;;;;;;0.80;0.60;;;;;;;26.61;29.47;97789.44;5071323;28;20032;-79
2022/10/02 04:10:59;;;;;;;0.70;0.70;;;;;;;26.83;29.13;97794.31;5072859;28;20040;-79
2022/10/02 04:13:40;;;;;;;0.60;0.60;;;;;;;26.25;29.81;97791.97;5069595;28;20029;-79
2022/10/02 04:16:23;;;;;;;0.93;0.63;;;;;;;26.35;29.64;97790.03;5068627;28;20055;-79
2022/10/02 04:18:53;;;;;;;1.20;0.80;;;;;;;26.34;29.40;97794.06;5069753;28;20028;-80
2022/10/02 04:21:28;;;;;;;0.60;0.60;;;;;;;26.99;28.78;97800.53;5069740;28;20055;-79
2022/10/02 04:24:12;;;;;;;1.10;1.05;;;;;;;26.88;28.66;97805.00;5069143;28;20044;-79
2022/10/02 04:26:44;;;;;;;0.98;0.50;;;;;;;27.17;27.80;97805.47;5071288;28;20090;-79
2022/10/02 04:29:25;;;;;;;0.63;0.63;;;;;;;26.40;29.26;97809.13;5072714;28;20032;-79
2022/10/02 04:32:00;;;;;;;1.00;0.68;;;;;;;27.14;28.05;97812.81;5067572;28;20071;-80
2022/10/02 04:34:27;;;;;;;0.70;0.60;;;;;;;26.07;29.33;97812.25;5053403;28;20032;-80
2022/10/02 04:37:02;;;;;;;1.50;0.68;;;;;;;26.29;28.91;97803.88;5067477;28;20427;-79
2022/10/02 04:39:33;;;;;;;1.20;0.70;;;;;;;27.62;27.48;97819.03;5070110;28;20143;-79
2022/10/02 04:42:27;;;;;;;1.20;0.60;;;;;;;27.64;27.22;97816.53;5063754;28;20032;-79
2022/10/02 04:45:18;;;;;;;1.50;0.43;;;;;;;27.62;27.22;97828.28;5063750;28;20048;-79
2022/10/02 04:48:12;;;;;;;0.70;0.60;;;;;;;27.62;27.25;97828.28;5055374;28;20029;-80
2022/10/02 04:50:50;;;;;;;0.98;0.60;;;;;;;27.17;27.80;97833.66;5079202;28;20044;-79
2022/10/02 04:53:39;;;;;;;0.50;0.50;;;;;;;26.66;29.17;97844.41;5057058;28;20029;-79
2022/10/02 04:56:33;;;;;;;0.40;0.40;;;;;;;26.76;28.27;97846.06;5069437;28;20040;-80
2022/10/02 04:59:18;;;;;;;0.55;0.55;;;;;;;26.98;27.97;97848.91;5069667;28;20105;-79
2022/10/02 05:02:09;;;;;;;2.05;0.50;;;;;;;26.35;28.81;97844.28;5066971;28;20047;-79
2022/10/02 05:04:53;;;;;;;1.10;0.47;;;;;;;27.09;27.24;97849.28;5062469;28;20091;-79
2022/10/02 05:07:28;;;;;;;0.60;0.60;;;;;;;26.50;28.25;97856.63;5065053;28;20060;-79
2022/10/02 05:10:14;;;;;;;0.63;0.57;;;;;;;26.03;29.60;97856.59;5064544;28;20104;-79
2022/10/02 05:13:03;;;;;;;2.60;0.60;;;;;;;25.36;30.28;97855.13;5065836;28;20035;-79
2022/10/02 05:15:51;;;;;;;1.85;0.50;;;;;;;25.66;29.88;97856.63;5065395;28;20040;-80
2022/10/02 05:18:32;;;;;;;1.00;0.63;;;;;;;26.19;28.95;97866.16;5066474;28;20040;-80
2022/10/02 05:20:58;;;;;;;;;;;;;;;25.80;28.55;97859.00;5067194;28;20033;-79
2022/10/02 05:23:48;;;;;;;0.47;0.47;;;;;;;26.54;28.73;97874.19;5045541;28;19916;-80
2022/10/02 05:26:26;;;;;;;2.03;0.70;;;;;;;26.37;28.32;97880.44;5065338;28;20413;-80
2022/10/02 05:29:05;;;;;;;1.33;0.70;;;;;;;27.08;27.53;97881.50;5049446;28;20490;-80
2022/10/02 05:31:57;;;;;;;1.23;0.40;;;;;;;26.33;28.97;97885.38;5063878;28;20058;-82
2022/10/02 05:34:53;;;;;;;1.40;0.60;;;;;;;26.70;27.94;97879.63;5071157;28;20093;-80
2022/10/02 05:38:02;;;;;;;1.05;0.68;;;;;;;26.76;28.27;97887.53;5061911;28;20050;-80
2022/10/02 05:40:54;;;;;;;1.95;0.57;;;;;;;26.98;27.82;97891.16;5070651;28;20041;-80
2022/10/02 05:43:48;;;;;;;1.48;0.63;;;;;;;27.41;26.96;97899.63;5064848;28;20044;-79
2022/10/02 05:46:21;;;;;;;1.67;0.75;;;;;;;26.73;27.72;97904.09;5059114;28;20033;-79
2022/10/02 05:49:06;;;;;;;2.67;1.13;;;;;;;25.87;30.11;97898.94;5045657;28;20629;-79
2022/10/02 05:51:46;;;;;;;1.90;0.80;;;;;;;25.70;29.84;97897.47;5067546;28;20028;-79
2022/10/02 05:54:22;;;;;;;1.75;0.70;;;;;;;26.25;28.55;97901.75;5058898;28;20047;-80
2022/10/02 05:57:03;;;;;;;3.90;0.80;;;;;;;26.80;27.48;97910.72;5064738;28;20076;-79
2022/10/02 05:59:49;;;;;;;0.90;0.60;;;;;;;26.94;27.22;97911.00;5064784;28;20029;-79
2022/10/02 06:02:39;;;;;;;0.57;0.50;;;;;;;27.18;27.62;97914.97;5053581;28;20036;-80
2022/10/02 06:05:12;;;;;;;1.20;0.80;;;;;;;26.60;28.49;97922.28;5060344;28;20035;-79
2022/10/02 06:07:42;;;;;;;2.80;1.02;;;;;;;25.49;31.03;97914.19;5065967;28;20398;-79
2022/10/02 06:10:36;;;;;;;1.25;0.80;;;;;;;25.57;29.82;97922.00;5063823;28;20032;-79
2022/10/02 06:13:29;;;;;;;1.00;0.60;;;;;;;26.55;28.97;97925.66;5054815;28;20406;-79
2022/10/02 06:16:18;;;;;;;1.25;0.70;;;;;;;27.11;27.68;97929.31;5067736;28;20032;-79
2022/10/02 06:18:50;;;;;;;0.85;0.50;;;;;;;26.24;30.18;97933.94;5064195;28;20115;-79
2022/10/02 06:21:34;;;;;;;1.20;0.90;;;;;;;26.18;29.70;97935.75;5068244;28;20594;-79
2022/10/02 06:24:09;;;;;;;0.70;0.70;;;;;;;25.96;29.60;97946.06;5066380;28;20035;-80
2022/10/02 06:26:52;;;;;;;3.95;0.90;;;;;;;25.89;29.50;97937.84;5065637;28;20070;-79
2022/10/02 06:29:43;;;;;;;2.30;0.80;;;;;;;26.72;28.58;97938.34;5068764;28;20039;-79
2022/10/02 06:32:18;;;;;;;1.73;0.60;;;;;;;26.07;29.82;97946.50;5068640;28;20086;-80
2022/10/02 06:34:45;;;;;;;1.08;0.50;;;;;;;26.09;30.34;97944.81;5061383;28;20040;-79
2022/10/02 06:37:17;;;;;;;0.50;0.50;;;;;;;26.60;30.00;97942.78;5046327;28;20386;-79
2022/10/02 06:40:12;;;;;;;1.20;0.80;;;;;;;26.11;29.46;97954.88;5066262;28;20428;-79
2022/10/02 06:42:57;;;;;;;3.40;0.60;;;;;;;26.70;28.78;97966.94;5066781;28;20028;-79
2022/10/02 06:45:32;;;;;;;0.95;0.60;;;;;;;26.65;29.40;97963.94;5056966;28;20093;-79
2022/10/02 06:48:39;;;;;;;0.82;0.70;;;;;;;26.73;29.04;97973.72;5068109;28;20044;-79
2022/10/02 06:51:23;;;;;;;1.95;0.80;;;;;;;26.19;30.20;97967.47;5054275;28;20041;-79
2022/10/02 06:54:23;;;;;;;1.40;0.60;;;;;;;27.04;28.29;97976.69;5068301;28;20037;-79
2022/10/02 06:57:05;;;;;;;1.63;0.85;;;;;;;27.50;27.49;97973.00;5067901;28;20502;-79
2022/10/02 07:00:13;;;;;;;1.33;0.60;;;;;;;27.72;27.20;97976.59;5068930;28;20043;-79
2022/10/02 07:03:02;;;;;;;3.13;0.82;;;;;;;26.88;28.04;97988.94;5060844;28;20032;-79
2022/10/02 07:05:35;;;;;;;1.35;0.70;;;;;;;27.74;26.93;97985.38;5063883;28;20073;-79
2022/10/02 07:08:22;;;;;;;2.83;0.70;;;;;;;27.87;27.41;97986.06;5036012;28;20025;-79
2022/10/02 07:10:54;;;;;;;4.75;0.93;;;;;;;27.75;27.21;97995.41;5067668;28;20179;-79
2022/10/02 07:13:58;;;;;;;1.67;0.52;;;;;;;27.88;26.57;97984.03;5044849;28;20435;-79
2022/10/02 07:16:39;;;;;;;2.70;0.60;;;;;;;27.75;27.26;97995.41;5065515;28;20056;-79
2022/10/02 07:19:32;;;;;;;0.73;0.68;;;;;;;28.34;26.72;97988.66;5064755;28;20045;-79
2022/10/02 07:22:34;;;;;;;0.77;0.70;;;;;;;28.63;26.17;97997.59;5060392;28;20486;-79
2022/10/02 07:25:18;;;;;;;0.95;0.40;;;;;;;27.46;28.43;97996.94;5060880;28;20055;-79
2022/10/02 07:28:06;;;;;;;1.50;0.70;;;;;;;27.28;27.74;97994.75;5059565;28;20490;-79
2022/10/02 07:31:00;;;;;;;0.40;0.40;;;;;;;28.01;27.77;97993.22;5055342;28;20032;-80
2022/10/02 07:33:41;;;;;;;4.78;0.80;;;;;;;27.18;27.56;98001.56;5059766;28;20037;-80
2022/10/02 07:36:27;;;;;;;3.50;0.80;;;;;;;26.89;28.62;97986.88;5063647;28;20032;-79
2022/10/02 07:39:11;;;;;;;5.00;0.75;;;;;;;27.05;28.50;97975.47;5066165;28;20040;-79
2022/10/02 07:42:04;;;;;;;1.15;0.60;;;;;;;26.28;29.59;98004.97;5064220;28;20045;-78
2022/10/02 07:44:53;;;;;;;1.85;0.70;;;;;;;27.27;28.51;97993.16;5060678;28;20081;-81
2022/10/02 07:47:37;;;;;;;0.85;0.52;;;;;;;27.81;26.80;97993.56;5058359;28;20028;-80
2022/10/02 07:50:29;;;;;;;0.85;0.50;;;;;;;27.81;29.24;97992.78;5062666;28;20516;-79
2022/10/02 07:53:01;;;;;;;0.60;0.60;;;;;;;28.31;25.98;97995.22;5067663;28;20037;-79
2022/10/02 07:55:28;;;;;;;0.90;0.50;;;;;;;27.84;28.47;97995.44;5065365;28;20039;-79
2022/10/02 07:58:08;;;;;;;1.98;0.50;;;;;;;27.21;27.59;98000.66;5057927;28;20518;-79
2022/10/02 08:00:47;;;;;;;0.95;0.43;;;;;;;27.82;27.83;98000.78;5063359;28;20048;-80
2022/10/02 08:03:38;;;;;;;1.10;0.50;;;;;;;27.69;27.44;97997.25;5063385;28;20119;-79
2022/10/02 08:06:06;;;;;;;2.60;0.60;;;;;;;28.19;28.21;97996.16;5063755;28;20147;-79
2022/10/02 08:08:49;;;;;;;0.85;0.50;;;;;;;28.10;27.32;97993.25;5058497;28;20036;-80
2022/10/02 08:11:18;;;;;;;0.43;0.40;;;;;;;28.58;26.52;97992.50;5066441;28;20115;-79
2022/10/02 08:13:56;;;;;;;0.50;0.50;;;;;;;28.64;26.70;98004.00;5063696;28;20036;-79
2022/10/02 08:16:39;;;;;;;1.50;0.50;;;;;;;28.70;26.50;98002.16;5060418;28;20086;-79
2022/10/02 08:19:39;;;;;;;1.75;0.47;;;;;;;28.35;25.67;97993.06;5059809;28;20032;-79
2022/10/02 08:22:11;;;;;;;2.53;0.57;;;;;;;27.99;26.94;98007.00;5056264;28;20044;-79
2022/10/02 08:24:44;;;;;;;0.77;0.60;;;;;;;27.78;27.81;98000.13;5063677;28;20033;-80
2022/10/02 08:27:17;;;;;;;1.35;0.50;;;;;;;27.79;29.04;98004.53;5063408;28;20509;-80
2022/10/02 08:29:49;;;;;;;1.05;0.50;;;;;;;28.77;26.58;98003.88;5063254;28;20040;-79
2022/10/02 08:32:15;;;;;;;1.58;0.60;;;;;;;27.61;27.19;98004.41;5061213;28;20043;-79
2022/10/02 08:34:42;;;;;;;1.65;0.50;;;;;;;26.87;27.87;97997.81;5062717;28;20037;-79
2022/10/02 08:37:28;;;;;;;2.70;0.60;;;;;;;27.95;26.90;97981.72;5068587;28;20029;-79
2022/10/02 08:40:32;;;;;;;0.95;0.52;;;;;;;28.22;25.08;97988.75;5068015;28;20432;-79
2022/10/02 08:43:39;;;;;;;1.27;0.57;;;;;;;27.61;27.69;97970.56;5068936;28;20448;-79
2022/10/02 08:46:30;;;;;;;1.15;0.50;;;;;;;28.02;26.65;97973.03;5014425;28;20049;-79
2022/10/02 08:49:17;;;;;;;2.08;0.60;;;;;;;28.10;27.25;97967.84;5067129;28;20056;-79
2022/10/02 08:52:11;;;;;;;1.40;0.50;;;;;;;29.33;25.75;97962.66;5060034;28;21949;-79
2022/10/02 08:54:56;;;;;;;1.48;0.52;;;;;;;28.97;25.46;97964.66;5065247;28;20036;-79
2022/10/02 08:57:51;;;;;;;1.65;0.50;;;;;;;29.04;24.75;97955.84;5062506;28;20038;-78
2022/10/02 09:01:02;;;;;;;3.05;0.40;;;;;;;28.91;24.92;97958.84;5068589;28;20068;-81
2022/10/02 09:04:11;;;;;;;4.40;0.80;;;;;;;27.76;28.18;97960.31;5066852;28;20040;-79
2022/10/02 09:07:14;;;;;;;2.58;0.50;;;;;;;27.95;29.98;97969.66;5067164;28;20041;-78
2022/10/02 09:09:52;;;;;;;3.08;0.50;;;;;;;28.28;28.52;97959.47;5059711;28;20124;-78
2022/10/02 09:12:36;;;;;;;0.82;0.45;;;;;;;27.43;27.95;97950.69;5066102;28;20468;-78
2022/10/02 09:15:14;;;;;;;1.10;0.50;;;;;;;26.82;26.98;97954.09;5063415;28;20047;-79
2022/10/02 09:18:03;;;;;;;0.70;0.50;;;;;;;27.50;27.23;97958.88;5056978;28;20036;-78
2022/10/02 09:21:07;;;;;;;2.25;0.60;;;;;;;26.78;30.02;97966.75;5065426;28;20043;-78
2022/10/02 09:23:57;;;;;;;10.23;0.90;;;;;;;26.63;28.72;97964.38;5058344;28;20032;-77
2022/10/02 09:27:01;;;;;;;1.55;0.63;;;;;;;26.93;29.30;97965.81;5071981;28;20450;-78
2022/10/02 09:29:55;;;;;;;2.70;0.75;;;;;;;27.00;27.31;97961.94;5041757;28;20037;-78
2022/10/02 09:32:48;;;;;;;3.08;0.70;;;;;;;27.31;27.04;97957.16;5063805;28;20529;-78
2022/10/02 09:35:41;;;;;;;1.65;0.60;;;;;;;27.31;27.48;97948.69;5057655;28;20024;-78
2022/10/02 09:38:32;;;;;;;2.15;0.60;;;;;;;28.08;26.83;97949.84;5059152;28;20033;-79
2022/10/02 09:41:19;;;;;;;2.10;0.70;;;;;;;27.69;27.81;97940.03;5059923;28;20036;-79
2022/10/02 09:44:19;;;;;;;4.00;0.60;;;;;;;27.68;27.56;97946.94;5062768;28;20045;-79
2022/10/02 09:46:56;;;;;;;5.60;0.70;;;;;;;27.88;26.00;97945.31;5063081;28;20047;-79
2022/10/02 09:49:59;;;;;;;2.88;0.63;;;;;;;27.68;26.58;97952.59;5063414;28;20309;-80
2022/10/02 09:52:59;;;;;;;1.85;0.50;;;;;;;27.66;27.86;97947.41;5064048;28;20466;-80
2022/10/02 09:56:01;;;;;;;0.75;0.50;;;;;;;27.82;26.03;97946.41;5071318;28;20540;-80
2022/10/02 09:58:43;;;;;;;2.60;0.60;;;;;;;27.82;26.27;97940.75;5051351;28;20440;-79
2022/10/02 10:01:15;;;;;;;0.70;0.50;;;;;;;27.97;27.09;97942.53;5062167;28;20032;-79
2022/10/02 10:03:57;;;;;;;2.42;0.82;;;;;;;28.03;26.92;97940.69;5073572;28;20520;-80
2022/10/02 10:07:15;;;;;;;1.13;0.47;;;;;;;27.99;25.55;97939.28;5054551;28;20462;-80
2022/10/02 10:09:50;;;;;;;1.42;0.60;;;;;;;29.10;25.17;97940.59;5020386;28;20057;-80
2022/10/02 10:12:45;;;;;;;0.60;0.50;;;;;;;29.20;25.12;97941.41;5074662;28;20371;-80
2022/10/02 10:15:28;;;;;;;0.82;0.60;;;;;;;28.56;25.13;97934.91;5066019;28;20044;-81
2022/10/02 10:18:41;;;;;;;0.63;0.50;;;;;;;29.62;24.34;97930.19;5058074;28;20044;-80
2022/10/02 10:21:36;;;;;;;1.98;0.82;;;;;;;29.74;23.57;97940.53;5066369;28;20044;-80
2022/10/02 10:24:41;;;;;;;0.40;0.40;;;;;;;28.38;26.23;97930.00;5053219;28;20036;-81
2022/10/02 10:27:10;;;;;;;1.33;0.70;;;;;;;28.41;26.50;97945.22;5059994;28;20040;-80
2022/10/02 10:29:45;;;;;;;2.90;0.52;;;;;;;28.74;25.62;97934.97;5082745;28;20028;-80
2022/10/02 10:32:41;;;;;;;2.28;0.70;;;;;;;29.53;25.42;97942.31;5073776;28;20043;-81
2022/10/02 10:35:46;;;;;;;1.00;0.60;;;;;;;30.24;23.91;97930.47;5063725;28;20032;-80
2022/10/02 10:38:57;;;;;;;2.78;0.82;;;;;;;29.17;23.06;97942.34;5033271;28;20491;-80
2022/10/02 10:41:59;;;;;;;1.73;0.60;;;;;;;28.98;26.13;97921.78;5042958;28;20029;-80
2022/10/02 10:44:54;;;;;;;1.52;0.52;;;;;;;27.73;25.29;97913.25;5062205;28;20040;-80
2022/10/02 10:47:31;;;;;;;1.85;0.80;;;;;;;27.64;29.37;97927.31;5054172;28;20478;-80
2022/10/02 10:50:09;;;;;;;5.85;0.63;;;;;;;28.30;28.09;97917.44;5061763;28;20406;-81
2022/10/02 10:53:06;;;;;;;1.80;0.63;;;;;;;29.18;23.13;97922.13;5062464;28;20424;-81
2022/10/02 10:55:59;;;;;;;1.05;0.50;;;;;;;28.27;25.18;97935.31;5071232;28;20045;-80
2022/10/02 10:58:40;;;;;;;3.13;0.60;;;;;;;28.19;26.40;97931.22;5063898;28;20454;-80
2022/10/02 11:01:20;;;;;;;;;;;;;;;28.49;23.25;97926.72;5058074;28;20071;-80
2022/10/02 11:04:17;;;;;;;1.50;0.60;;;;;;;29.12;24.04;97909.84;5067846;28;19924;-81
2022/10/02 11:07:01;;;;;;;3.13;0.50;;;;;;;28.65;26.10;97915.16;5067119;28;20035;-81
2022/10/02 11:09:33;;;;;;;1.15;0.63;;;;;;;28.03;25.95;97917.34;5065023;28;20032;-80
2022/10/02 11:12:27;;;;;;;1.40;0.50;;;;;;;27.77;25.14;97918.78;5072963;28;20028;-80
2022/10/02 11:15:13;;;;;;;1.88;0.50;;;;;;;28.38;24.85;97923.56;5073869;28;20025;-81
2022/10/02 11:18:11;;;;;;;0.43;0.30;;;;;;;29.22;24.85;97917.06;5071254;28;20040;-81
2022/10/02 11:21:15;;;;;;;0.65;0.40;;;;;;;29.99;23.33;97912.66;5057549;28;20045;-81
2022/10/02 11:24:21;;;;;;;0.85;0.45;;;;;;;30.04;23.21;97899.88;5061160;28;20067;-80
2022/10/02 11:27:21;;;;;;;1.33;0.50;;;;;;;29.61;23.68;97895.47;5063170;28;20502;-81
2022/10/02 11:30:24;;;;;;;1.20;0.40;;;;;;;29.58;23.94;97904.13;5070654;28;20103;-81
2022/10/02 11:32:53;;;;;;;0.85;0.32;;;;;;;29.54;25.56;97900.69;5069859;28;20043;-82
2022/10/02 11:35:48;;;;;;;1.15;0.50;;;;;;;28.66;24.42;97911.88;5070114;28;20044;-81
2022/10/02 11:38:54;;;;;;;0.88;0.38;;;;;;;29.59;24.58;97903.66;5065718;28;20041;-81
2022/10/02 11:41:45;;;;;;;1.45;0.70;;;;;;;29.86;23.73;97914.13;5063828;28;20037;-81
2022/10/02 11:44:26;;;;;;;1.67;0.47;;;;;;;30.69;22.99;97894.16;5069421;28;20039;-80
2022/10/02 11:47:13;;;;;;;1.35;0.40;;;;;;;30.42;22.40;97902.84;5049616;28;20095;-81
2022/10/02 11:50:00;;;;;;;0.57;0.38;;;;;;;29.99;22.66;97894.91;5072572;28;20086;-81
2022/10/02 11:52:45;;;;;;;1.65;0.45;;;;;;;30.55;23.17;97885.63;5065271;28;20417;-81
2022/10/02 11:55:49;;;;;;;1.38;0.50;;;;;;;30.40;22.03;97891.22;5068520;28;20109;-81
2022/10/02 11:58:21;;;;;;;1.27;0.50;;;;;;;29.69;24.64;97893.88;5060486;28;20029;-81
2022/10/02 12:01:20;;;;;;;0.90;0.30;;;;;;;29.06;24.63;97896.78;5064864;28;20040;-81
2022/10/02 12:04:10;;;;;;;1.95;0.40;;;;;;;29.31;24.31;97894.44;5062307;28;20097;-81
2022/10/02 12:07:12;;;;;;;0.50;0.43;;;;;;;30.50;22.71;97889.13;5068525;28;20033;-81
2022/10/02 12:09:57;;;;;;;2.35;0.50;;;;;;;31.06;23.62;97886.19;5071500;28;20075;-81
2022/10/02 12:12:50;;;;;;;1.50;0.60;;;;;;;31.11;23.75;97887.56;5074000;28;20029;-81
2022/10/02 12:15:37;;;;;;;1.25;0.40;;;;;;;31.34;22.36;97886.69;5062657;28;20112;-81
2022/10/02 12:18:22;;;;;;;3.03;0.50;;;;;;;30.89;22.80;97875.78;5063331;28;20044;-81
2022/10/02 12:27:01;;;;;;;1.00;0.50;;;;;;;30.68;24.98;97860.63;5065112;28;20128;-81
2022/10/02 12:29:59;;;;;;;0.88;0.32;;;;;;;31.23;25.21;97860.94;5068488;28;20038;-81
2022/10/02 12:33:07;;;;;;;1.95;0.38;;;;;;;31.67;23.34;97852.47;5065215;28;20120;-81
2022/10/02 12:35:58;;;;;;;1.35;0.40;;;;;;;30.11;22.72;97825.91;5065948;28;20020;-81
2022/10/02 12:38:36;;;;;;;4.32;0.60;;;;;;;29.58;24.33;97858.84;5053625;28;20032;-81
2022/10/02 12:41:14;;;;;;;1.02;0.50;;;;;;;29.04;25.52;97837.91;5067411;28;20070;-83
2022/10/02 12:44:31;;;;;;;2.50;0.70;;;;;;;29.71;26.36;97851.72;5055085;28;20025;-82
2022/10/02 12:47:19;;;;;;;2.47;0.90;;;;;;;29.57;24.44;97855.22;5004657;28;20099;-81
2022/10/02 12:50:06;;;;;;;3.42;1.05;;;;;;;29.45;23.53;97849.78;5061244;28;20032;-81
2022/10/02 12:52:58;;;;;;;2.17;0.77;;;;;;;29.25;26.24;97845.44;5066592;28;20033;-82
2022/10/02 12:55:55;;;;;;;1.85;0.70;;;;;;;30.55;25.44;97845.94;5063067;28;20121;-82
2022/10/02 12:58:24;;;;;;;1.42;0.70;;;;;;;29.22;25.27;97835.06;5053253;28;20051;-82